createdAt,value
2022-08-12T00:00:04.239Z,59.22
2022-08-12T00:00:59.411Z,59.30
2022-08-12T00:02:03.693Z,59.27
2022-08-12T00:02:51.520Z,59.10
2022-08-12T00:03:46.432Z,59.30
2022-08-12T00:04:41.649Z,59.12
2022-08-12T00:05:37.407Z,59.38
2022-08-12T00:06:33.613Z,59.42
2022-08-12T00:07:28.399Z,59.26
2022-08-12T00:08:32.035Z,59.35
2022-08-12T00:09:25.742Z,59.43
2022-08-12T00:10:15.839Z,59.16
2022-08-12T00:11:12.626Z,59.09
2022-08-12T00:12:04.837Z,59.25
2022-08-12T00:13:02.171Z,59.20
2022-08-12T00:13:57.237Z,59.17
2022-08-12T00:14:52.214Z,59.38
2022-08-12T00:15:47.264Z,59.23
2022-08-12T00:16:42.337Z,59.33
2022-08-12T00:17:37.349Z,59.24
2022-08-12T00:18:32.465Z,59.30
2022-08-12T00:19:27.546Z,59.35
2022-08-12T00:20:22.624Z,59.11
2022-08-12T00:21:17.684Z,59.11
2022-08-12T00:22:12.717Z,59.13
2022-08-12T00:23:07.781Z,59.24
2022-08-12T00:24:02.868Z,59.14
2022-08-12T00:24:57.907Z,59.24
2022-08-12T00:26:21.360Z,59.07
2022-08-12T00:26:49.876Z,59.43
2022-08-12T00:27:44.582Z,60.19
2022-08-12T00:28:40.054Z,60.27
2022-08-12T00:29:35.132Z,60.06
2022-08-12T00:30:30.281Z,59.86
2022-08-12T00:31:25.481Z,59.72
2022-08-12T00:32:35.287Z,60.05
2022-08-12T00:33:18.251Z,60.33
2022-08-12T00:34:12.545Z,60.17
2022-08-12T00:35:08.707Z,59.93
2022-08-12T00:36:03.499Z,59.86
2022-08-12T00:37:02.801Z,59.80
2022-08-12T00:37:55.483Z,59.83
2022-08-12T00:38:49.750Z,59.72
2022-08-12T00:39:45.541Z,59.87
2022-08-12T00:40:40.688Z,59.79
2022-08-12T00:41:36.043Z,59.78
2022-08-12T00:42:32.029Z,59.99
2022-08-12T00:43:27.095Z,59.91
2022-08-12T00:44:22.218Z,59.88
2022-08-12T00:45:18.522Z,59.85
2022-08-12T00:46:13.771Z,59.88
2022-08-12T00:47:09.434Z,59.85
2022-08-12T00:48:05.145Z,60.10
2022-08-12T00:49:01.870Z,60.15
2022-08-12T00:49:57.118Z,60.29
2022-08-12T00:50:52.257Z,60.31
2022-08-12T00:51:47.368Z,60.34
2022-08-12T00:52:42.345Z,60.26
2022-08-12T00:53:37.467Z,60.36
2022-08-12T00:54:32.606Z,60.55
2022-08-12T00:55:27.617Z,60.53
2022-08-12T00:56:22.681Z,60.37
2022-08-12T00:57:17.700Z,60.47
2022-08-12T00:58:12.695Z,60.25
2022-08-12T00:59:07.733Z,60.17
2022-08-12T01:00:02.801Z,60.00
2022-08-12T01:00:57.878Z,59.92
2022-08-12T01:02:10.386Z,60.01
2022-08-12T01:02:48.991Z,60.09
2022-08-12T01:03:43.064Z,60.26
2022-08-12T01:04:38.122Z,60.68
2022-08-12T01:05:33.146Z,60.65
2022-08-12T01:06:28.213Z,60.90
2022-08-12T01:07:26.647Z,60.82
2022-08-12T01:08:21.805Z,61.08
2022-08-12T01:09:16.990Z,61.00
2022-08-12T01:10:12.193Z,60.85
2022-08-12T01:11:07.340Z,61.10
2022-08-12T01:12:02.706Z,60.95
2022-08-12T01:13:19.466Z,60.85
2022-08-12T01:13:53.969Z,60.78
2022-08-12T01:14:48.127Z,60.94
2022-08-12T01:15:43.348Z,60.91
2022-08-12T01:16:38.476Z,60.67
2022-08-12T01:17:36.652Z,60.78
2022-08-12T01:18:31.768Z,60.80
2022-08-12T01:19:26.865Z,60.68
2022-08-12T01:20:22.012Z,60.63
2022-08-12T01:21:17.625Z,60.74
2022-08-12T01:22:12.757Z,60.83
2022-08-12T01:23:07.935Z,60.78
2022-08-12T01:24:29.745Z,60.99
2022-08-12T01:24:59.705Z,60.97
2022-08-12T01:25:56.209Z,60.88
2022-08-12T01:26:49.104Z,60.78
2022-08-12T01:27:44.306Z,60.79
2022-08-12T01:28:39.580Z,60.60
2022-08-12T01:29:34.847Z,60.74
2022-08-12T01:30:29.956Z,60.83
2022-08-12T01:31:25.148Z,61.08
2022-08-12T01:32:20.285Z,61.03
2022-08-12T01:33:15.565Z,61.23
2022-08-12T01:34:35.371Z,61.18
2022-08-12T01:35:06.846Z,61.52
2022-08-12T01:36:08.438Z,61.56
2022-08-12T01:36:57.170Z,61.71
2022-08-12T01:37:51.384Z,61.70
2022-08-12T01:38:46.458Z,61.82
2022-08-12T01:40:35.754Z,61.86
2022-08-12T01:40:39.114Z,61.97
2022-08-12T01:41:32.145Z,62.00
2022-08-12T01:42:27.122Z,61.89
2022-08-12T01:43:22.346Z,61.90
2022-08-12T01:44:20.572Z,62.30
2022-08-12T01:45:12.630Z,62.14
2022-08-12T01:46:07.979Z,62.43
2022-08-12T01:47:02.967Z,62.35
2022-08-12T01:47:58.078Z,62.54
2022-08-12T01:48:53.204Z,62.25
2022-08-12T01:49:48.309Z,62.42
2022-08-12T01:50:43.529Z,62.44
2022-08-12T01:52:15.217Z,62.61
2022-08-12T01:52:34.709Z,62.66
2022-08-12T01:53:28.753Z,62.84
2022-08-12T01:54:24.876Z,62.70
2022-08-12T01:55:18.959Z,62.58
2022-08-12T01:56:13.914Z,62.46
2022-08-12T01:57:08.921Z,62.45
2022-08-12T01:58:04.010Z,62.52
2022-08-12T01:58:59.089Z,62.55
2022-08-12T01:59:55.192Z,62.83
2022-08-12T02:00:54.868Z,62.68
2022-08-12T02:01:46.551Z,62.74
2022-08-12T02:02:40.762Z,62.95
2022-08-12T02:03:36.276Z,63.22
2022-08-12T02:04:31.385Z,63.32
2022-08-12T02:05:26.641Z,63.42
2022-08-12T02:06:21.744Z,63.32
2022-08-12T02:07:16.863Z,63.39
2022-08-12T02:08:12.913Z,63.32
2022-08-12T02:09:08.140Z,63.65
2022-08-12T02:10:03.297Z,63.57
2022-08-12T02:10:58.395Z,63.42
2022-08-12T02:11:53.862Z,63.21
2022-08-12T02:12:48.833Z,63.26
2022-08-12T02:13:49.288Z,63.33
2022-08-12T02:14:40.132Z,63.30
2022-08-12T02:15:34.281Z,63.02
2022-08-12T02:16:29.372Z,63.09
2022-08-12T02:17:54.675Z,62.79
2022-08-12T02:18:20.522Z,62.97
2022-08-12T02:19:22.842Z,62.94
2022-08-12T02:20:10.661Z,62.96
2022-08-12T02:21:04.693Z,62.88
2022-08-12T02:21:59.830Z,62.92
2022-08-12T02:22:54.850Z,63.00
2022-08-12T02:23:49.964Z,63.07
2022-08-12T02:24:45.048Z,63.16
2022-08-12T02:25:40.152Z,63.36
2022-08-12T02:26:35.160Z,63.27
2022-08-12T02:27:30.270Z,63.30
2022-08-12T02:28:25.249Z,63.35
2022-08-12T02:29:20.354Z,63.30
2022-08-12T02:30:15.337Z,63.37
2022-08-12T02:31:10.357Z,63.34
2022-08-12T02:32:05.446Z,63.58
2022-08-12T02:33:00.558Z,63.54
2022-08-12T02:33:55.546Z,63.74
2022-08-12T02:34:50.637Z,63.81
2022-08-12T02:35:46.815Z,63.89
2022-08-12T02:36:41.935Z,63.89
2022-08-12T02:37:37.138Z,63.88
2022-08-12T02:38:32.299Z,63.81
2022-08-12T02:39:27.409Z,63.68
2022-08-12T02:40:22.517Z,63.44
2022-08-12T02:41:17.723Z,63.89
2022-08-12T02:42:12.873Z,64.21
2022-08-12T02:43:08.261Z,64.12
2022-08-12T02:44:03.961Z,64.21
2022-08-12T02:44:59.212Z,64.34
2022-08-12T02:45:55.042Z,64.35
2022-08-12T02:46:50.127Z,64.44
2022-08-12T02:47:58.896Z,64.74
2022-08-12T02:48:42.173Z,64.71
2022-08-12T02:49:36.348Z,64.72
2022-08-12T02:50:31.446Z,64.51
2022-08-12T02:51:27.911Z,64.53
2022-08-12T02:52:23.069Z,64.64
2022-08-12T02:53:18.872Z,64.61
2022-08-12T02:54:13.989Z,64.48
2022-08-12T02:55:09.123Z,64.63
2022-08-12T02:56:04.909Z,64.62
2022-08-12T02:57:00.072Z,64.61
2022-08-12T02:57:55.899Z,64.42
2022-08-12T02:58:50.989Z,64.06
2022-08-12T02:59:46.293Z,64.16
2022-08-12T03:00:42.031Z,64.29
2022-08-12T03:01:47.815Z,64.22
2022-08-12T03:02:33.305Z,64.01
2022-08-12T03:03:27.494Z,63.87
2022-08-12T03:04:23.284Z,63.83
2022-08-12T03:05:18.415Z,64.26
2022-08-12T03:06:13.637Z,64.46
2022-08-12T03:07:10.035Z,64.62
2022-08-12T03:08:05.153Z,64.63
2022-08-12T03:09:02.008Z,64.68
2022-08-12T03:10:04.032Z,64.57
2022-08-12T03:10:52.743Z,64.40
2022-08-12T03:11:48.760Z,64.50
2022-08-12T03:12:50.741Z,64.66
2022-08-12T03:13:39.019Z,64.96
2022-08-12T03:14:33.203Z,65.14
2022-08-12T03:15:29.702Z,65.08
2022-08-12T03:16:24.831Z,65.03
2022-08-12T03:17:20.765Z,64.94
2022-08-12T03:18:26.041Z,64.96
2022-08-12T03:19:12.054Z,65.01
2022-08-12T03:20:10.974Z,65.02
2022-08-12T03:21:02.281Z,65.16
2022-08-12T03:22:08.825Z,65.13
2022-08-12T03:22:54.775Z,65.29
2022-08-12T03:23:48.993Z,65.38
2022-08-12T03:24:44.799Z,65.48
2022-08-12T03:25:39.879Z,65.30
2022-08-12T03:26:35.043Z,65.78
2022-08-12T03:27:30.843Z,65.96
2022-08-12T03:28:26.031Z,66.03
2022-08-12T03:29:21.808Z,66.18
2022-08-12T03:30:17.016Z,66.20
2022-08-12T03:31:12.276Z,66.11
2022-08-12T03:32:08.082Z,66.20
2022-08-12T03:33:04.275Z,66.33
2022-08-12T03:34:02.241Z,66.33
2022-08-12T03:34:53.485Z,66.39
2022-08-12T03:35:48.475Z,66.37
2022-08-12T03:36:43.476Z,66.49
2022-08-12T03:37:38.590Z,66.41
2022-08-12T03:38:33.600Z,66.42
2022-08-12T03:39:36.158Z,66.35
2022-08-12T03:40:24.696Z,66.54
2022-08-12T03:41:18.740Z,66.34
2022-08-12T03:42:13.836Z,66.36
2022-08-12T03:43:09.070Z,66.46
2022-08-12T03:44:06.613Z,66.51
2022-08-12T03:45:01.742Z,66.68
2022-08-12T03:45:57.007Z,66.88
2022-08-12T03:46:52.823Z,66.70
2022-08-12T03:47:47.970Z,66.57
2022-08-12T03:48:43.084Z,66.34
2022-08-12T03:49:39.524Z,66.14
2022-08-12T03:50:34.702Z,66.00
2022-08-12T03:51:30.557Z,66.21
2022-08-12T03:52:25.712Z,66.31
2022-08-12T03:53:20.922Z,66.56
2022-08-12T03:54:16.682Z,66.39
2022-08-12T03:55:11.869Z,66.49
2022-08-12T03:56:07.734Z,66.51
2022-08-12T03:57:02.777Z,66.62
2022-08-12T03:57:57.998Z,66.78
2022-08-12T03:58:53.739Z,67.07
2022-08-12T03:59:49.023Z,67.00
2022-08-12T04:00:44.211Z,66.84
2022-08-12T04:01:40.734Z,66.87
2022-08-12T04:02:34.664Z,67.03
2022-08-12T04:03:29.832Z,67.16
2022-08-12T04:04:25.028Z,67.26
2022-08-12T04:05:21.477Z,67.54
2022-08-12T04:06:16.120Z,67.62
2022-08-12T04:07:12.357Z,67.68
2022-08-12T04:08:07.387Z,67.74
2022-08-12T04:09:02.577Z,67.73
2022-08-12T04:09:57.786Z,67.70
2022-08-12T04:10:53.036Z,67.55
2022-08-12T04:11:48.141Z,67.62
2022-08-12T04:12:43.321Z,67.32
2022-08-12T04:13:38.255Z,67.09
2022-08-12T04:14:33.269Z,67.16
2022-08-12T04:15:28.297Z,67.07
2022-08-12T04:16:23.295Z,67.22
2022-08-12T04:17:18.315Z,67.20
2022-08-12T04:18:13.353Z,67.22
2022-08-12T04:19:08.334Z,67.31
2022-08-12T04:20:03.344Z,67.25
2022-08-12T04:20:58.374Z,67.41
2022-08-12T04:22:02.224Z,67.31
2022-08-12T04:22:50.249Z,67.82
2022-08-12T04:23:48.778Z,67.90
2022-08-12T04:24:43.862Z,67.94
2022-08-12T04:25:40.275Z,68.00
2022-08-12T04:26:34.495Z,67.86
2022-08-12T04:27:29.774Z,68.02
2022-08-12T04:28:25.083Z,68.03
2022-08-12T04:29:20.366Z,67.93
2022-08-12T04:30:30.427Z,67.79
2022-08-12T04:31:12.374Z,67.62
2022-08-12T04:32:06.682Z,67.72
2022-08-12T04:33:01.977Z,67.52
2022-08-12T04:33:57.269Z,67.57
2022-08-12T04:34:52.531Z,67.65
2022-08-12T04:35:47.910Z,67.65
2022-08-12T04:36:43.083Z,67.35
2022-08-12T04:37:59.314Z,67.41
2022-08-12T04:38:34.831Z,67.44
2022-08-12T04:39:29.199Z,67.22
2022-08-12T04:40:28.003Z,67.09
2022-08-12T04:41:19.439Z,67.21
2022-08-12T04:42:14.705Z,67.11
2022-08-12T04:44:00.813Z,67.18
2022-08-12T04:44:05.796Z,67.28
2022-08-12T04:44:59.918Z,67.28
2022-08-12T04:45:54.965Z,67.35
2022-08-12T04:46:51.547Z,67.18
2022-08-12T04:47:46.746Z,67.14
2022-08-12T04:48:42.094Z,67.29
2022-08-12T04:49:37.395Z,67.16
2022-08-12T04:50:36.034Z,67.15
2022-08-12T04:51:28.383Z,67.33
2022-08-12T04:52:23.774Z,67.27
2022-08-12T04:53:19.064Z,67.30
2022-08-12T04:54:14.392Z,67.45
2022-08-12T04:55:09.744Z,67.26
2022-08-12T04:56:05.070Z,67.19
2022-08-12T04:57:03.506Z,67.07
2022-08-12T04:57:55.813Z,66.72
2022-08-12T04:58:52.775Z,66.65
2022-08-12T04:59:48.626Z,66.44
2022-08-12T05:00:42.447Z,66.60
2022-08-12T05:01:37.808Z,66.61
2022-08-12T05:02:33.193Z,66.57
2022-08-12T05:03:28.428Z,66.29
2022-08-12T05:04:24.810Z,66.46
2022-08-12T05:05:19.189Z,66.82
2022-08-12T05:06:20.825Z,66.83
2022-08-12T05:07:12.393Z,66.84
2022-08-12T05:08:06.771Z,66.78
2022-08-12T05:09:02.218Z,66.47
2022-08-12T05:10:02.472Z,66.39
2022-08-12T05:10:53.382Z,66.48
2022-08-12T05:11:53.739Z,66.38
2022-08-12T05:12:45.235Z,66.12
2022-08-12T05:13:39.487Z,65.97
2022-08-12T05:14:37.599Z,65.90
2022-08-12T05:15:30.459Z,66.11
2022-08-12T05:16:30.807Z,66.00
2022-08-12T05:17:22.069Z,65.82
2022-08-12T05:18:19.533Z,65.69
2022-08-12T05:19:12.895Z,65.48
2022-08-12T05:20:07.595Z,65.14
2022-08-12T05:21:01.652Z,64.83
2022-08-12T05:21:56.710Z,64.47
2022-08-12T05:22:54.714Z,64.24
2022-08-12T05:23:47.844Z,64.11
2022-08-12T05:24:42.034Z,63.95
2022-08-12T05:25:40.017Z,63.99
2022-08-12T05:26:34.986Z,63.94
2022-08-12T05:27:29.983Z,63.85
2022-08-12T05:28:25.055Z,63.88
2022-08-12T05:30:06.335Z,63.63
2022-08-12T05:30:16.175Z,63.73
2022-08-12T05:31:10.260Z,63.92
2022-08-12T05:32:05.253Z,63.39
2022-08-12T05:33:01.462Z,63.69
2022-08-12T05:33:56.838Z,63.85
2022-08-12T05:34:52.262Z,63.93
2022-08-12T05:35:47.779Z,63.97
2022-08-12T05:36:43.031Z,63.86
2022-08-12T05:37:38.420Z,63.91
2022-08-12T05:38:33.811Z,63.69
2022-08-12T05:39:29.408Z,63.73
2022-08-12T05:40:24.598Z,63.47
2022-08-12T05:41:19.970Z,63.55
2022-08-12T05:42:15.378Z,63.15
2022-08-12T05:43:10.769Z,63.03
2022-08-12T05:44:06.180Z,63.03
2022-08-12T05:45:01.640Z,63.20
2022-08-12T05:45:56.990Z,63.44
2022-08-12T05:46:52.358Z,63.16
2022-08-12T05:47:53.545Z,62.62
2022-08-12T05:48:45.397Z,62.40
2022-08-12T05:49:39.706Z,62.60
2022-08-12T05:50:35.083Z,62.09
2022-08-12T05:51:39.947Z,62.09
2022-08-12T05:52:26.975Z,61.68
2022-08-12T05:53:21.458Z,61.60
2022-08-12T05:54:17.170Z,61.36
2022-08-12T05:55:12.219Z,61.44
2022-08-12T05:56:07.406Z,60.77
2022-08-12T05:57:02.473Z,60.32
2022-08-12T05:57:57.492Z,60.00
2022-08-12T05:58:52.505Z,59.77
2022-08-12T05:59:47.575Z,59.63
2022-08-12T06:00:42.608Z,59.49
2022-08-12T06:02:10.787Z,59.19
2022-08-12T06:02:33.723Z,58.49
2022-08-12T06:03:27.859Z,58.23
2022-08-12T06:04:22.907Z,57.97
2022-08-12T06:05:17.949Z,57.96
2022-08-12T06:06:12.965Z,57.80
2022-08-12T06:08:00.869Z,58.06
2022-08-12T06:08:05.002Z,58.18
2022-08-12T06:08:59.339Z,58.03
2022-08-12T06:09:54.801Z,58.12
2022-08-12T06:10:50.484Z,58.18
2022-08-12T06:12:05.869Z,57.79
2022-08-12T06:12:42.391Z,57.94
2022-08-12T06:13:54.551Z,57.83
2022-08-12T06:14:33.169Z,57.20
2022-08-12T06:15:28.116Z,57.12
2022-08-12T06:16:23.534Z,56.95
2022-08-12T06:17:18.988Z,57.08
2022-08-12T06:18:16.427Z,57.07
2022-08-12T06:19:09.119Z,56.94
2022-08-12T06:20:26.335Z,56.84
2022-08-12T06:21:02.073Z,56.98
2022-08-12T06:21:54.232Z,56.19
2022-08-12T06:22:49.247Z,55.19
2022-08-12T06:23:45.421Z,55.27
2022-08-12T06:24:41.700Z,55.60
2022-08-12T06:25:37.160Z,55.49
2022-08-12T06:26:32.576Z,55.44
2022-08-12T06:27:28.085Z,55.35
2022-08-12T06:28:23.534Z,55.20
2022-08-12T06:30:07.332Z,55.30
2022-08-12T06:30:27.699Z,55.23
2022-08-12T06:31:27.345Z,54.70
2022-08-12T06:32:06.017Z,55.13
2022-08-12T06:33:18.577Z,54.43
2022-08-12T06:34:01.160Z,54.90
2022-08-12T06:35:25.621Z,54.77
2022-08-12T06:35:47.843Z,54.92
2022-08-12T06:36:40.425Z,54.94
2022-08-12T06:37:35.545Z,54.21
2022-08-12T06:38:30.602Z,53.96
2022-08-12T06:39:25.677Z,53.68
2022-08-12T06:40:21.093Z,53.49
2022-08-12T06:41:16.587Z,54.06
2022-08-12T06:42:33.095Z,53.77
2022-08-12T06:43:08.450Z,53.91
2022-08-12T06:44:07.044Z,53.84
2022-08-12T06:44:57.832Z,54.03
2022-08-12T06:45:52.873Z,53.26
2022-08-12T06:46:47.909Z,52.92
2022-08-12T06:47:46.051Z,52.86
2022-08-12T06:48:41.123Z,53.05
2022-08-12T06:49:36.160Z,53.25
2022-08-12T06:50:31.229Z,53.36
2022-08-12T06:51:26.348Z,53.88
2022-08-12T06:52:21.380Z,53.02
2022-08-12T06:53:16.427Z,53.12
2022-08-12T06:54:11.466Z,53.04
2022-08-12T06:55:06.507Z,53.24
2022-08-12T06:56:01.646Z,52.60
2022-08-12T06:57:57.416Z,52.97
2022-08-12T06:58:05.187Z,53.31
2022-08-12T06:58:47.864Z,52.97
2022-08-12T06:59:42.098Z,52.60
2022-08-12T07:00:37.622Z,52.87
2022-08-12T07:01:33.044Z,53.17
2022-08-12T07:02:28.547Z,52.74
2022-08-12T07:03:23.954Z,52.81
2022-08-12T07:04:36.343Z,52.76
2022-08-12T07:05:15.957Z,52.21
2022-08-12T07:06:10.437Z,51.99
2022-08-12T07:07:05.930Z,52.02
2022-08-12T07:08:01.392Z,51.71
2022-08-12T07:08:57.852Z,51.70
2022-08-12T07:10:04.158Z,51.59
2022-08-12T07:10:48.234Z,52.17
2022-08-12T07:11:42.376Z,52.27
2022-08-12T07:12:38.485Z,52.27
2022-08-12T07:13:32.491Z,51.94
2022-08-12T07:14:27.517Z,51.34
2022-08-12T07:15:22.590Z,51.44
2022-08-12T07:16:17.656Z,51.42
2022-08-12T07:17:13.224Z,50.70
2022-08-12T07:18:08.570Z,50.89
2022-08-12T07:19:04.001Z,51.28
2022-08-12T07:20:03.922Z,51.43
2022-08-12T07:20:55.910Z,51.67
2022-08-12T07:22:02.392Z,51.93
2022-08-12T07:22:46.850Z,52.31
2022-08-12T07:23:41.270Z,52.16
2022-08-12T07:24:36.772Z,51.72
2022-08-12T07:25:40.431Z,51.63
2022-08-12T07:26:32.444Z,51.61
2022-08-12T07:27:26.907Z,51.26
2022-08-12T07:28:22.319Z,50.58
2022-08-12T07:29:17.767Z,50.50
2022-08-12T07:30:13.281Z,50.80
2022-08-12T07:31:08.869Z,50.06
2022-08-12T07:32:04.187Z,49.21
2022-08-12T07:33:01.779Z,49.24
2022-08-12T07:33:55.243Z,48.94
2022-08-12T07:34:50.722Z,48.88
2022-08-12T07:35:46.117Z,49.02
2022-08-12T07:36:41.767Z,48.63
2022-08-12T07:37:37.330Z,48.16
2022-08-12T07:38:32.743Z,48.06
2022-08-12T07:39:28.310Z,47.66
2022-08-12T07:40:23.381Z,47.92
2022-08-12T07:41:18.378Z,47.97
2022-08-12T07:42:13.421Z,48.45
2022-08-12T07:43:08.669Z,48.89
2022-08-12T07:44:04.794Z,49.74
2022-08-12T07:44:58.669Z,48.80
2022-08-12T07:45:53.866Z,48.69
2022-08-12T07:46:48.834Z,48.39
2022-08-12T07:47:43.998Z,47.46
2022-08-12T07:48:39.159Z,47.49
2022-08-12T07:49:34.174Z,47.29
2022-08-12T07:50:30.172Z,46.36
2022-08-12T07:51:24.750Z,46.50
2022-08-12T07:52:19.432Z,46.63
2022-08-12T07:53:14.474Z,46.46
2022-08-12T07:54:09.513Z,46.19
2022-08-12T07:55:04.535Z,46.18
2022-08-12T07:55:59.602Z,46.18
2022-08-12T07:56:54.991Z,46.71
2022-08-12T07:57:50.574Z,47.03
2022-08-12T07:58:47.194Z,47.42
2022-08-12T07:59:40.637Z,47.10
2022-08-12T08:00:35.767Z,46.85
2022-08-12T08:01:30.818Z,46.29
2022-08-12T08:02:27.052Z,45.96
2022-08-12T08:03:20.840Z,45.93
2022-08-12T08:04:19.038Z,45.41
2022-08-12T08:05:10.890Z,45.05
2022-08-12T08:06:05.895Z,44.82
2022-08-12T08:07:01.913Z,44.61
2022-08-12T08:07:55.987Z,44.38
2022-08-12T08:08:50.981Z,44.15
2022-08-12T08:09:46.389Z,44.81
2022-08-12T08:10:41.951Z,45.25
2022-08-12T08:11:37.646Z,44.64
2022-08-12T08:12:32.477Z,44.31
2022-08-12T08:13:27.479Z,44.48
2022-08-12T08:14:22.619Z,44.63
2022-08-12T08:15:17.657Z,44.47
2022-08-12T08:16:12.646Z,43.90
2022-08-12T08:17:07.771Z,43.93
2022-08-12T08:18:02.877Z,43.96
2022-08-12T08:19:00.448Z,44.17
2022-08-12T08:20:04.102Z,43.60
2022-08-12T08:20:51.627Z,43.91
2022-08-12T08:23:10.692Z,42.68
2022-08-12T08:24:06.166Z,42.89
2022-08-12T08:25:01.459Z,42.53
2022-08-12T08:25:56.921Z,42.05
2022-08-12T08:26:52.462Z,42.54
2022-08-12T08:27:47.978Z,43.28
2022-08-12T08:28:43.553Z,43.84
2022-08-12T08:29:39.060Z,44.08
2022-08-12T08:30:34.500Z,44.24
2022-08-12T08:31:30.039Z,43.88
2022-08-12T08:32:25.550Z,43.52
2022-08-12T08:34:04.226Z,43.31
2022-08-12T08:34:49.267Z,43.25
2022-08-12T08:35:12.967Z,42.51
2022-08-12T08:36:10.826Z,42.96
2022-08-12T08:37:07.549Z,43.12
2022-08-12T08:37:58.389Z,43.37
2022-08-12T08:38:58.602Z,42.70
2022-08-12T08:39:50.446Z,42.29
2022-08-12T08:40:44.919Z,41.29
2022-08-12T08:42:14.086Z,41.40
2022-08-12T08:42:36.839Z,41.14
2022-08-12T08:43:43.211Z,41.04
2022-08-12T08:44:27.726Z,40.21
2022-08-12T08:45:22.099Z,40.06
2022-08-12T08:46:17.621Z,39.39
2022-08-12T08:47:13.159Z,39.14
2022-08-12T08:48:08.569Z,39.37
2022-08-12T08:49:04.230Z,39.62
2022-08-12T08:49:59.630Z,39.75
2022-08-12T08:51:04.456Z,39.67
2022-08-12T08:51:51.750Z,39.42
2022-08-12T08:52:46.332Z,39.21
2022-08-12T08:53:41.694Z,39.19
2022-08-12T08:54:37.225Z,39.09
2022-08-12T08:55:54.268Z,38.79
2022-08-12T08:56:29.219Z,38.78
2022-08-12T08:57:23.706Z,38.36
2022-08-12T08:58:20.104Z,38.63
2022-08-12T08:59:14.375Z,38.53
2022-08-12T09:00:09.890Z,38.41
2022-08-12T09:01:06.395Z,38.75
2022-08-12T09:02:00.811Z,37.89
2022-08-12T09:02:59.263Z,37.92
2022-08-12T09:05:08.432Z,37.92
2022-08-12T09:05:13.510Z,38.78
2022-08-12T09:06:02.138Z,38.77
2022-08-12T09:06:38.832Z,38.94
2022-08-12T09:07:51.542Z,39.34
2022-08-12T09:08:29.702Z,39.63
2022-08-12T09:09:24.072Z,38.56
2022-08-12T09:10:30.617Z,38.46
2022-08-12T09:12:06.401Z,38.80
2022-08-12T09:12:13.273Z,38.90
2022-08-12T09:13:06.283Z,38.35
2022-08-12T09:14:12.411Z,37.72
2022-08-12T09:14:57.801Z,37.84
2022-08-12T09:16:50.116Z,37.79
2022-08-12T09:17:43.449Z,37.93
2022-08-12T09:18:38.531Z,37.99
2022-08-12T09:19:33.931Z,36.90
2022-08-12T09:20:29.649Z,36.85
2022-08-12T09:21:25.018Z,37.14
2022-08-12T09:22:20.835Z,36.88
2022-08-12T09:23:59.956Z,36.74
2022-08-12T09:24:11.956Z,37.36
2022-08-12T09:25:06.443Z,37.64
2022-08-12T09:26:58.939Z,37.41
2022-08-12T09:28:03.862Z,37.57
2022-08-12T09:28:49.327Z,37.19
2022-08-12T09:30:09.750Z,37.02
2022-08-12T09:30:42.151Z,36.67
2022-08-12T09:32:07.740Z,36.27
2022-08-12T09:33:04.962Z,36.50
2022-08-12T09:34:25.933Z,36.97
2022-08-12T09:34:26.426Z,37.55
2022-08-12T09:35:22.113Z,37.83
2022-08-12T09:36:12.970Z,37.67
2022-08-12T09:37:18.850Z,37.71
2022-08-12T09:38:03.901Z,37.28
2022-08-12T09:38:58.941Z,37.16
2022-08-12T09:40:06.575Z,36.53
2022-08-12T09:41:01.780Z,36.11
2022-08-12T09:42:09.882Z,36.92
2022-08-12T09:42:54.346Z,37.18
2022-08-12T09:43:36.367Z,37.35
2022-08-12T09:44:38.886Z,37.17
2022-08-12T09:46:06.582Z,37.18
2022-08-12T09:46:25.427Z,36.52
2022-08-12T09:47:17.128Z,36.39
2022-08-12T09:48:20.278Z,36.85
2022-08-12T09:49:16.287Z,36.40
2022-08-12T09:50:04.397Z,35.87
2022-08-12T09:50:59.429Z,35.05
2022-08-12T09:51:54.187Z,35.47
2022-08-12T09:52:49.713Z,35.21
2022-08-12T09:53:45.743Z,34.80
2022-08-12T09:54:42.941Z,35.51
2022-08-12T09:55:59.575Z,35.59
2022-08-12T09:56:59.581Z,35.67
2022-08-12T09:58:45.198Z,36.09
2022-08-12T09:58:58.540Z,36.67
2022-08-12T10:00:15.920Z,36.02
2022-08-12T10:00:19.489Z,35.90
2022-08-12T10:01:14.841Z,35.83
2022-08-12T10:02:42.675Z,35.78
2022-08-12T10:03:01.100Z,34.78
2022-08-12T10:04:03.873Z,34.31
2022-08-12T10:04:51.535Z,34.40
2022-08-12T10:06:20.326Z,34.26
2022-08-12T10:06:54.758Z,34.16
2022-08-12T10:07:39.391Z,34.25
2022-08-12T10:08:31.661Z,33.63
2022-08-12T10:09:57.373Z,33.33
2022-08-12T10:10:25.104Z,33.76
2022-08-12T10:11:20.460Z,34.04
2022-08-12T10:12:13.397Z,33.99
2022-08-12T10:13:11.532Z,33.84
2022-08-12T10:14:04.308Z,33.90
2022-08-12T10:14:59.674Z,34.13
2022-08-12T10:16:02.121Z,33.81
2022-08-12T10:16:51.574Z,33.64
2022-08-12T10:18:05.915Z,32.88
2022-08-12T10:18:52.011Z,32.76
2022-08-12T10:19:38.089Z,32.98
2022-08-12T10:20:32.485Z,33.12
2022-08-12T10:21:36.380Z,33.03
2022-08-12T10:22:40.362Z,32.70
2022-08-12T10:23:19.642Z,32.95
2022-08-12T10:24:15.253Z,32.52
2022-08-12T10:25:17.109Z,32.00
2022-08-12T10:26:37.976Z,32.19
2022-08-12T10:27:06.090Z,32.44
2022-08-12T10:28:03.940Z,32.29
2022-08-12T10:29:02.062Z,31.86
2022-08-12T10:30:39.036Z,31.90
2022-08-12T10:30:46.908Z,31.80
2022-08-12T10:31:47.492Z,31.47
2022-08-12T10:32:44.747Z,31.83
2022-08-12T10:33:31.565Z,31.88
2022-08-12T10:34:26.476Z,31.29
2022-08-12T10:35:19.599Z,31.45
2022-08-12T10:36:15.171Z,31.35
2022-08-12T10:38:07.369Z,31.04
2022-08-12T10:38:33.655Z,31.43
2022-08-12T10:39:02.597Z,31.53
2022-08-12T10:40:03.137Z,30.98
2022-08-12T10:40:53.492Z,30.18
2022-08-12T10:41:57.955Z,30.28
2022-08-12T10:42:45.981Z,30.68
2022-08-12T10:43:55.005Z,31.34
2022-08-12T10:44:35.295Z,31.78
2022-08-12T10:45:30.579Z,31.96
2022-08-12T10:46:31.191Z,32.11
2022-08-12T10:47:26.027Z,31.74
2022-08-12T10:48:21.184Z,31.76
2022-08-12T10:50:02.536Z,31.49
2022-08-12T10:50:35.866Z,31.09
2022-08-12T10:51:49.052Z,30.93
2022-08-12T10:52:32.892Z,30.48
2022-08-12T10:52:54.375Z,30.29
2022-08-12T10:53:48.757Z,30.09
2022-08-12T10:54:44.344Z,31.02
2022-08-12T10:55:40.654Z,30.96
2022-08-12T10:56:35.496Z,30.59
2022-08-12T10:58:15.401Z,30.74
2022-08-12T10:58:30.898Z,30.49
2022-08-12T10:59:21.453Z,29.94
2022-08-12T11:00:34.447Z,30.17
2022-08-12T11:01:49.636Z,30.72
2022-08-12T11:04:19.846Z,30.16
2022-08-12T11:04:25.696Z,30.68
2022-08-12T11:04:28.596Z,30.44
2022-08-12T11:04:55.739Z,30.54
2022-08-12T11:07:07.347Z,30.78
2022-08-12T11:07:10.016Z,30.64
2022-08-12T11:08:34.449Z,31.16
2022-08-12T11:08:43.202Z,31.02
2022-08-12T11:09:41.719Z,31.58
2022-08-12T11:10:28.153Z,31.90
2022-08-12T11:12:07.662Z,32.49
2022-08-12T11:12:55.450Z,33.08
2022-08-12T11:13:14.582Z,32.38
2022-08-12T11:14:49.862Z,32.10
2022-08-12T11:15:19.320Z,31.67
2022-08-12T11:16:03.575Z,31.02
2022-08-12T11:17:33.982Z,30.65
2022-08-12T11:17:53.677Z,30.26
2022-08-12T11:18:45.953Z,29.86
2022-08-12T11:19:41.618Z,29.36
2022-08-12T11:20:36.860Z,29.81
2022-08-12T11:21:56.688Z,30.27
2022-08-12T11:22:28.722Z,30.61
2022-08-12T11:23:24.616Z,31.09
2022-08-12T11:24:31.706Z,30.61
2022-08-12T11:25:15.263Z,30.30
2022-08-12T11:26:09.686Z,30.58
2022-08-12T11:27:07.732Z,30.74
2022-08-12T11:28:00.653Z,30.32
2022-08-12T11:28:59.277Z,30.32
2022-08-12T11:30:02.137Z,30.17
2022-08-12T11:30:47.910Z,30.47
2022-08-12T11:31:56.118Z,29.79
2022-08-12T11:32:39.564Z,29.00
2022-08-12T11:34:06.139Z,28.96
2022-08-12T11:34:53.583Z,29.25
2022-08-12T11:35:24.831Z,29.36
2022-08-12T11:36:22.148Z,29.59
2022-08-12T11:37:25.917Z,29.57
2022-08-12T11:38:11.187Z,29.57
2022-08-12T11:39:05.717Z,29.67
2022-08-12T11:40:01.042Z,29.42
2022-08-12T11:40:56.491Z,29.50
2022-08-12T11:41:51.925Z,29.13
2022-08-12T11:42:47.384Z,29.53
2022-08-12T11:43:50.384Z,30.30
2022-08-12T11:44:43.157Z,30.26
2022-08-12T11:45:38.933Z,30.52
2022-08-12T11:46:30.552Z,30.10
2022-08-12T11:47:24.556Z,29.59
2022-08-12T11:48:20.059Z,29.61
2022-08-12T11:49:26.821Z,29.83
2022-08-12T11:50:18.917Z,29.88
2022-08-12T11:51:08.022Z,30.12
2022-08-12T11:52:01.545Z,30.25
2022-08-12T11:52:57.314Z,29.66
2022-08-12T11:53:59.168Z,29.28
2022-08-12T11:54:50.995Z,29.40
2022-08-12T11:55:45.339Z,29.39